sensor_id;sensor_type;location;lat;lon;timestamp;P1;durP1;ratioP1;P2;durP2;ratioP2
12768;SDS011;6448;48.916;8.990;2023-05-10T00:00:51;0.50;;;0.30;;
12768;SDS011;6448;48.916;8.990;2023-05-10T00:01:52;0.22;;;0.22;;
12768;SDS011;6448;48.916;8.990;2023-05-10T00:02:54;0.30;;;0.30;;
12768;SDS011;6448;48.916;8.990;2023-05-10T00:03:55;0.20;;;0.20;;
12768;SDS011;6448;48.916;8.990;2023-05-10T00:04:57;0.30;;;0.30;;
12768;SDS011;6448;48.916;8.990;2023-05-10T00:05:57;0.20;;;0.20;;
12768;SDS011;6448;48.916;8.990;2023-05-10T00:06:59;0.20;;;0.20;;
12768;SDS011;6448;48.916;8.990;2023-05-10T00:08:00;0.23;;;0.20;;
12768;SDS011;6448;48.916;8.990;2023-05-10T00:09:02;0.15;;;0.10;;
12768;SDS011;6448;48.916;8.990;2023-05-10T00:10:04;0.20;;;0.20;;
12768;SDS011;6448;48.916;8.990;2023-05-10T00:11:06;0.20;;;0.20;;
12768;SDS011;6448;48.916;8.990;2023-05-10T00:12:08;0.40;;;0.30;;
12768;SDS011;6448;48.916;8.990;2023-05-10T00:13:10;0.20;;;0.20;;
12768;SDS011;6448;48.916;8.990;2023-05-10T00:14:11;0.30;;;0.22;;
12768;SDS011;6448;48.916;8.990;2023-05-10T00:15:12;0.30;;;0.30;;
12768;SDS011;6448;48.916;8.990;2023-05-10T00:16:13;0.30;;;0.30;;
12768;SDS011;6448;48.916;8.990;2023-05-10T00:17:15;0.30;;;0.30;;
12768;SDS011;6448;48.916;8.990;2023-05-10T00:18:16;0.30;;;0.30;;
12768;SDS011;6448;48.916;8.990;2023-05-10T00:19:18;0.20;;;0.20;;
12768;SDS011;6448;48.916;8.990;2023-05-10T00:20:19;0.30;;;0.30;;
12768;SDS011;6448;48.916;8.990;2023-05-10T00:21:20;0.50;;;0.30;;
12768;SDS011;6448;48.916;8.990;2023-05-10T00:22:21;0.20;;;0.20;;
12768;SDS011;6448;48.916;8.990;2023-05-10T00:23:23;0.50;;;0.40;;
12768;SDS011;6448;48.916;8.990;2023-05-10T00:24:24;0.40;;;0.40;;
12768;SDS011;6448;48.916;8.990;2023-05-10T00:25:25;0.28;;;0.28;;
12768;SDS011;6448;48.916;8.990;2023-05-10T00:26:26;0.30;;;0.30;;
12768;SDS011;6448;48.916;8.990;2023-05-10T00:27:31;0.30;;;0.30;;
12768;SDS011;6448;48.916;8.990;2023-05-10T00:28:32;0.32;;;0.32;;
12768;SDS011;6448;48.916;8.990;2023-05-10T00:29:34;0.30;;;0.30;;
12768;SDS011;6448;48.916;8.990;2023-05-10T00:30:34;0.28;;;0.28;;
12768;SDS011;6448;48.916;8.990;2023-05-10T00:31:36;0.20;;;0.20;;
12768;SDS011;6448;48.916;8.990;2023-05-10T00:32:37;0.60;;;0.20;;
12768;SDS011;6448;48.916;8.990;2023-05-10T00:33:39;0.30;;;0.30;;
12768;SDS011;6448;48.916;8.990;2023-05-10T00:34:39;0.50;;;0.50;;
12768;SDS011;6448;48.916;8.990;2023-05-10T00:35:41;0.50;;;0.50;;
12768;SDS011;6448;48.916;8.990;2023-05-10T00:36:43;0.30;;;0.30;;
12768;SDS011;6448;48.916;8.990;2023-05-10T00:37:45;0.40;;;0.30;;
12768;SDS011;6448;48.916;8.990;2023-05-10T00:38:46;0.20;;;0.20;;
12768;SDS011;6448;48.916;8.990;2023-05-10T00:39:47;0.30;;;0.30;;
12768;SDS011;6448;48.916;8.990;2023-05-10T00:40:48;0.67;;;0.30;;
12768;SDS011;6448;48.916;8.990;2023-05-10T00:41:58;0.20;;;0.20;;
12768;SDS011;6448;48.916;8.990;2023-05-10T00:43:01;0.30;;;0.30;;
12768;SDS011;6448;48.916;8.990;2023-05-10T00:44:03;0.30;;;0.30;;
12768;SDS011;6448;48.916;8.990;2023-05-10T00:45:05;0.65;;;0.30;;
12768;SDS011;6448;48.916;8.990;2023-05-10T00:46:08;0.40;;;0.40;;
12768;SDS011;6448;48.916;8.990;2023-05-10T00:47:09;0.20;;;0.20;;
12768;SDS011;6448;48.916;8.990;2023-05-10T00:48:11;0.20;;;0.20;;
12768;SDS011;6448;48.916;8.990;2023-05-10T00:49:13;0.30;;;0.30;;
12768;SDS011;6448;48.916;8.990;2023-05-10T00:50:15;0.20;;;0.20;;
12768;SDS011;6448;48.916;8.990;2023-05-10T00:51:18;0.30;;;0.30;;
12768;SDS011;6448;48.916;8.990;2023-05-10T00:52:19;0.30;;;0.30;;
12768;SDS011;6448;48.916;8.990;2023-05-10T00:53:21;0.20;;;0.20;;
12768;SDS011;6448;48.916;8.990;2023-05-10T00:54:23;0.30;;;0.30;;
12768;SDS011;6448;48.916;8.990;2023-05-10T00:55:25;0.35;;;0.30;;
12768;SDS011;6448;48.916;8.990;2023-05-10T00:56:27;0.30;;;0.30;;
12768;SDS011;6448;48.916;8.990;2023-05-10T00:57:29;0.30;;;0.30;;
12768;SDS011;6448;48.916;8.990;2023-05-10T00:58:33;0.30;;;0.30;;
12768;SDS011;6448;48.916;8.990;2023-05-10T00:59:33;0.30;;;0.30;;
12768;SDS011;6448;48.916;8.990;2023-05-10T01:00:35;0.47;;;0.40;;
12768;SDS011;6448;48.916;8.990;2023-05-10T01:01:38;0.30;;;0.30;;
12768;SDS011;6448;48.916;8.990;2023-05-10T01:02:40;0.63;;;0.32;;
12768;SDS011;6448;48.916;8.990;2023-05-10T01:03:41;0.30;;;0.30;;
12768;SDS011;6448;48.916;8.990;2023-05-10T01:04:43;0.30;;;0.30;;
12768;SDS011;6448;48.916;8.990;2023-05-10T01:05:44;0.40;;;0.40;;
12768;SDS011;6448;48.916;8.990;2023-05-10T01:06:46;0.75;;;0.40;;
12768;SDS011;6448;48.916;8.990;2023-05-10T01:07:47;0.40;;;0.40;;
12768;SDS011;6448;48.916;8.990;2023-05-10T01:08:49;0.40;;;0.40;;
12768;SDS011;6448;48.916;8.990;2023-05-10T01:09:51;0.30;;;0.30;;
12768;SDS011;6448;48.916;8.990;2023-05-10T01:10:53;0.80;;;0.38;;
12768;SDS011;6448;48.916;8.990;2023-05-10T01:11:54;0.50;;;0.50;;
12768;SDS011;6448;48.916;8.990;2023-05-10T01:12:57;0.40;;;0.40;;
12768;SDS011;6448;48.916;8.990;2023-05-10T01:14:01;0.40;;;0.40;;
12768;SDS011;6448;48.916;8.990;2023-05-10T01:15:04;0.60;;;0.30;;
12768;SDS011;6448;48.916;8.990;2023-05-10T01:16:07;0.45;;;0.30;;
12768;SDS011;6448;48.916;8.990;2023-05-10T01:17:08;0.40;;;0.30;;
12768;SDS011;6448;48.916;8.990;2023-05-10T01:18:11;0.30;;;0.30;;
12768;SDS011;6448;48.916;8.990;2023-05-10T01:19:15;0.40;;;0.40;;
12768;SDS011;6448;48.916;8.990;2023-05-10T01:20:19;0.40;;;0.40;;
12768;SDS011;6448;48.916;8.990;2023-05-10T01:21:23;0.43;;;0.43;;
12768;SDS011;6448;48.916;8.990;2023-05-10T01:24:30;0.40;;;0.40;;
12768;SDS011;6448;48.916;8.990;2023-05-10T01:27:20;0.40;;;0.40;;
12768;SDS011;6448;48.916;8.990;2023-05-10T01:32:05;0.40;;;0.40;;
12768;SDS011;6448;48.916;8.990;2023-05-10T01:33:13;0.43;;;0.43;;
12768;SDS011;6448;48.916;8.990;2023-05-10T01:34:20;0.60;;;0.60;;
12768;SDS011;6448;48.916;8.990;2023-05-10T01:35:26;0.45;;;0.45;;
12768;SDS011;6448;48.916;8.990;2023-05-10T01:36:35;0.60;;;0.50;;
12768;SDS011;6448;48.916;8.990;2023-05-10T01:37:43;0.40;;;0.40;;
12768;SDS011;6448;48.916;8.990;2023-05-10T01:38:49;0.40;;;0.40;;
12768;SDS011;6448;48.916;8.990;2023-05-10T01:39:55;0.50;;;0.50;;
12768;SDS011;6448;48.916;8.990;2023-05-10T01:41:04;0.40;;;0.40;;
12768;SDS011;6448;48.916;8.990;2023-05-10T01:42:14;0.50;;;0.50;;
12768;SDS011;6448;48.916;8.990;2023-05-10T01:43:21;0.47;;;0.47;;
12768;SDS011;6448;48.916;8.990;2023-05-10T01:44:28;0.47;;;0.47;;
12768;SDS011;6448;48.916;8.990;2023-05-10T01:45:36;0.40;;;0.40;;
12768;SDS011;6448;48.916;8.990;2023-05-10T01:46:39;0.40;;;0.40;;
12768;SDS011;6448;48.916;8.990;2023-05-10T01:47:43;0.40;;;0.40;;
12768;SDS011;6448;48.916;8.990;2023-05-10T01:48:47;0.40;;;0.40;;
12768;SDS011;6448;48.916;8.990;2023-05-10T01:49:53;0.40;;;0.40;;
12768;SDS011;6448;48.916;8.990;2023-05-10T01:50:56;0.50;;;0.50;;
12768;SDS011;6448;48.916;8.990;2023-05-10T01:52:03;0.52;;;0.52;;
12768;SDS011;6448;48.916;8.990;2023-05-10T01:53:09;0.40;;;0.40;;
12768;SDS011;6448;48.916;8.990;2023-05-10T01:54:13;0.50;;;0.50;;
12768;SDS011;6448;48.916;8.990;2023-05-10T01:55:18;0.30;;;0.30;;
12768;SDS011;6448;48.916;8.990;2023-05-10T01:56:21;0.50;;;0.50;;
12768;SDS011;6448;48.916;8.990;2023-05-10T01:57:28;0.40;;;0.40;;
12768;SDS011;6448;48.916;8.990;2023-05-10T01:58:33;0.70;;;0.50;;
12768;SDS011;6448;48.916;8.990;2023-05-10T01:59:37;0.40;;;0.40;;
12768;SDS011;6448;48.916;8.990;2023-05-10T02:00:42;0.40;;;0.40;;
12768;SDS011;6448;48.916;8.990;2023-05-10T02:01:46;0.50;;;0.50;;
12768;SDS011;6448;48.916;8.990;2023-05-10T02:02:50;0.43;;;0.43;;
12768;SDS011;6448;48.916;8.990;2023-05-10T02:03:53;0.40;;;0.40;;
12768;SDS011;6448;48.916;8.990;2023-05-10T02:04:55;0.50;;;0.50;;
12768;SDS011;6448;48.916;8.990;2023-05-10T02:05:58;0.50;;;0.50;;
12768;SDS011;6448;48.916;8.990;2023-05-10T02:06:59;0.50;;;0.50;;
12768;SDS011;6448;48.916;8.990;2023-05-10T02:08:02;0.60;;;0.40;;
12768;SDS011;6448;48.916;8.990;2023-05-10T02:09:06;0.68;;;0.50;;
12768;SDS011;6448;48.916;8.990;2023-05-10T02:10:09;0.40;;;0.40;;
12768;SDS011;6448;48.916;8.990;2023-05-10T02:11:10;0.50;;;0.50;;
12768;SDS011;6448;48.916;8.990;2023-05-10T02:12:15;0.45;;;0.45;;
12768;SDS011;6448;48.916;8.990;2023-05-10T02:13:17;0.50;;;0.50;;
12768;SDS011;6448;48.916;8.990;2023-05-10T02:14:20;0.60;;;0.60;;
12768;SDS011;6448;48.916;8.990;2023-05-10T02:15:22;0.45;;;0.45;;
12768;SDS011;6448;48.916;8.990;2023-05-10T02:16:26;0.47;;;0.47;;
12768;SDS011;6448;48.916;8.990;2023-05-10T02:17:28;0.63;;;0.50;;
12768;SDS011;6448;48.916;8.990;2023-05-10T02:18:32;0.50;;;0.50;;
12768;SDS011;6448;48.916;8.990;2023-05-10T02:19:36;0.40;;;0.40;;
12768;SDS011;6448;48.916;8.990;2023-05-10T02:20:41;0.50;;;0.50;;
12768;SDS011;6448;48.916;8.990;2023-05-10T02:21:43;0.70;;;0.65;;
12768;SDS011;6448;48.916;8.990;2023-05-10T02:22:47;0.50;;;0.50;;
12768;SDS011;6448;48.916;8.990;2023-05-10T02:23:50;0.55;;;0.55;;
12768;SDS011;6448;48.916;8.990;2023-05-10T02:24:55;0.50;;;0.50;;
12768;SDS011;6448;48.916;8.990;2023-05-10T02:25:57;0.50;;;0.50;;
12768;SDS011;6448;48.916;8.990;2023-05-10T02:27:01;0.50;;;0.50;;
12768;SDS011;6448;48.916;8.990;2023-05-10T02:28:03;0.50;;;0.50;;
12768;SDS011;6448;48.916;8.990;2023-05-10T02:29:07;0.60;;;0.60;;
12768;SDS011;6448;48.916;8.990;2023-05-10T02:30:09;0.60;;;0.60;;
12768;SDS011;6448;48.916;8.990;2023-05-10T02:31:12;0.60;;;0.60;;
12768;SDS011;6448;48.916;8.990;2023-05-10T02:32:14;0.50;;;0.50;;
12768;SDS011;6448;48.916;8.990;2023-05-10T02:33:17;0.50;;;0.50;;
12768;SDS011;6448;48.916;8.990;2023-05-10T02:34:21;0.50;;;0.50;;
12768;SDS011;6448;48.916;8.990;2023-05-10T02:35:24;0.70;;;0.65;;
12768;SDS011;6448;48.916;8.990;2023-05-10T02:36:27;0.60;;;0.60;;
12768;SDS011;6448;48.916;8.990;2023-05-10T02:37:29;0.60;;;0.60;;
12768;SDS011;6448;48.916;8.990;2023-05-10T02:38:30;1.05;;;0.68;;
12768;SDS011;6448;48.916;8.990;2023-05-10T02:39:34;0.70;;;0.70;;
12768;SDS011;6448;48.916;8.990;2023-05-10T02:40:36;0.60;;;0.60;;
12768;SDS011;6448;48.916;8.990;2023-05-10T02:41:39;1.10;;;0.70;;
12768;SDS011;6448;48.916;8.990;2023-05-10T02:42:41;0.60;;;0.60;;
12768;SDS011;6448;48.916;8.990;2023-05-10T02:43:44;0.60;;;0.60;;
12768;SDS011;6448;48.916;8.990;2023-05-10T02:44:48;0.60;;;0.60;;
12768;SDS011;6448;48.916;8.990;2023-05-10T02:45:52;0.90;;;0.60;;
12768;SDS011;6448;48.916;8.990;2023-05-10T02:46:53;0.60;;;0.60;;
12768;SDS011;6448;48.916;8.990;2023-05-10T02:47:56;0.70;;;0.70;;
12768;SDS011;6448;48.916;8.990;2023-05-10T02:48:57;0.65;;;0.65;;
12768;SDS011;6448;48.916;8.990;2023-05-10T02:50:01;0.85;;;0.60;;
12768;SDS011;6448;48.916;8.990;2023-05-10T02:51:05;0.68;;;0.68;;
12768;SDS011;6448;48.916;8.990;2023-05-10T02:52:09;0.65;;;0.65;;
12768;SDS011;6448;48.916;8.990;2023-05-10T02:53:13;1.20;;;0.60;;
12768;SDS011;6448;48.916;8.990;2023-05-10T02:54:20;0.60;;;0.60;;
12768;SDS011;6448;48.916;8.990;2023-05-10T02:55:25;0.60;;;0.60;;
12768;SDS011;6448;48.916;8.990;2023-05-10T02:56:32;0.60;;;0.60;;
12768;SDS011;6448;48.916;8.990;2023-05-10T02:57:36;0.60;;;0.60;;
12768;SDS011;6448;48.916;8.990;2023-05-10T02:58:42;0.77;;;0.77;;
12768;SDS011;6448;48.916;8.990;2023-05-10T02:59:43;1.50;;;0.80;;
12768;SDS011;6448;48.916;8.990;2023-05-10T03:00:45;0.80;;;0.80;;
12768;SDS011;6448;48.916;8.990;2023-05-10T03:01:46;0.75;;;0.75;;
12768;SDS011;6448;48.916;8.990;2023-05-10T03:02:48;0.70;;;0.70;;
12768;SDS011;6448;48.916;8.990;2023-05-10T03:03:48;0.70;;;0.70;;
12768;SDS011;6448;48.916;8.990;2023-05-10T03:04:50;0.90;;;0.83;;
12768;SDS011;6448;48.916;8.990;2023-05-10T03:05:52;0.70;;;0.70;;
12768;SDS011;6448;48.916;8.990;2023-05-10T03:06:56;0.80;;;0.80;;
12768;SDS011;6448;48.916;8.990;2023-05-10T03:07:57;0.90;;;0.80;;
12768;SDS011;6448;48.916;8.990;2023-05-10T03:08:58;0.90;;;0.90;;
12768;SDS011;6448;48.916;8.990;2023-05-10T03:10:00;0.88;;;0.88;;
12768;SDS011;6448;48.916;8.990;2023-05-10T03:11:08;0.80;;;0.75;;
12768;SDS011;6448;48.916;8.990;2023-05-10T03:12:19;0.80;;;0.80;;
12768;SDS011;6448;48.916;8.990;2023-05-10T03:13:29;0.90;;;0.90;;
12768;SDS011;6448;48.916;8.990;2023-05-10T03:14:41;1.42;;;0.80;;
12768;SDS011;6448;48.916;8.990;2023-05-10T03:15:51;0.90;;;0.80;;
12768;SDS011;6448;48.916;8.990;2023-05-10T03:17:00;0.90;;;0.80;;
12768;SDS011;6448;48.916;8.990;2023-05-10T03:18:07;0.90;;;0.90;;
12768;SDS011;6448;48.916;8.990;2023-05-10T03:19:12;0.80;;;0.80;;
12768;SDS011;6448;48.916;8.990;2023-05-10T03:20:21;0.80;;;0.80;;
12768;SDS011;6448;48.916;8.990;2023-05-10T03:21:28;1.05;;;0.90;;
12768;SDS011;6448;48.916;8.990;2023-05-10T03:22:34;0.98;;;0.88;;
12768;SDS011;6448;48.916;8.990;2023-05-10T03:23:40;1.10;;;1.00;;
12768;SDS011;6448;48.916;8.990;2023-05-10T03:24:44;0.90;;;0.90;;
12768;SDS011;6448;48.916;8.990;2023-05-10T03:25:47;0.90;;;0.80;;
12768;SDS011;6448;48.916;8.990;2023-05-10T03:26:50;0.90;;;0.90;;
12768;SDS011;6448;48.916;8.990;2023-05-10T03:27:55;0.90;;;0.90;;
12768;SDS011;6448;48.916;8.990;2023-05-10T03:28:59;0.90;;;0.90;;
12768;SDS011;6448;48.916;8.990;2023-05-10T03:30:01;0.95;;;0.90;;
12768;SDS011;6448;48.916;8.990;2023-05-10T03:31:06;0.90;;;0.90;;
12768;SDS011;6448;48.916;8.990;2023-05-10T03:32:08;0.80;;;0.80;;
12768;SDS011;6448;48.916;8.990;2023-05-10T03:33:09;0.90;;;0.90;;
12768;SDS011;6448;48.916;8.990;2023-05-10T03:34:15;0.90;;;0.90;;
12768;SDS011;6448;48.916;8.990;2023-05-10T03:35:16;0.80;;;0.80;;
12768;SDS011;6448;48.916;8.990;2023-05-10T03:36:18;0.90;;;0.90;;
12768;SDS011;6448;48.916;8.990;2023-05-10T03:37:22;0.93;;;0.90;;
12768;SDS011;6448;48.916;8.990;2023-05-10T03:38:23;0.88;;;0.88;;
12768;SDS011;6448;48.916;8.990;2023-05-10T03:39:24;0.90;;;0.90;;
12768;SDS011;6448;48.916;8.990;2023-05-10T03:40:29;1.00;;;1.00;;
12768;SDS011;6448;48.916;8.990;2023-05-10T03:41:32;0.90;;;0.90;;
12768;SDS011;6448;48.916;8.990;2023-05-10T03:42:32;0.90;;;0.90;;
12768;SDS011;6448;48.916;8.990;2023-05-10T03:43:34;0.90;;;0.90;;
12768;SDS011;6448;48.916;8.990;2023-05-10T03:44:35;0.90;;;0.90;;
12768;SDS011;6448;48.916;8.990;2023-05-10T03:45:37;0.80;;;0.80;;
12768;SDS011;6448;48.916;8.990;2023-05-10T03:46:38;0.80;;;0.80;;
12768;SDS011;6448;48.916;8.990;2023-05-10T03:47:39;0.88;;;0.88;;
12768;SDS011;6448;48.916;8.990;2023-05-10T03:48:40;0.80;;;0.80;;
12768;SDS011;6448;48.916;8.990;2023-05-10T03:49:42;0.90;;;0.90;;
12768;SDS011;6448;48.916;8.990;2023-05-10T03:50:45;0.85;;;0.85;;
12768;SDS011;6448;48.916;8.990;2023-05-10T03:51:47;0.85;;;0.85;;
12768;SDS011;6448;48.916;8.990;2023-05-10T03:52:49;0.73;;;0.73;;
12768;SDS011;6448;48.916;8.990;2023-05-10T03:53:51;0.80;;;0.80;;
12768;SDS011;6448;48.916;8.990;2023-05-10T03:54:52;0.77;;;0.77;;
12768;SDS011;6448;48.916;8.990;2023-05-10T03:55:53;0.90;;;0.80;;
12768;SDS011;6448;48.916;8.990;2023-05-10T03:56:54;1.17;;;0.88;;
12768;SDS011;6448;48.916;8.990;2023-05-10T03:57:57;1.00;;;0.80;;
12768;SDS011;6448;48.916;8.990;2023-05-10T03:58:58;1.23;;;0.80;;
12768;SDS011;6448;48.916;8.990;2023-05-10T03:59:59;0.80;;;0.80;;
12768;SDS011;6448;48.916;8.990;2023-05-10T04:01:00;0.70;;;0.70;;
12768;SDS011;6448;48.916;8.990;2023-05-10T04:02:02;0.70;;;0.70;;
12768;SDS011;6448;48.916;8.990;2023-05-10T04:03:03;1.25;;;0.80;;
12768;SDS011;6448;48.916;8.990;2023-05-10T04:04:05;0.70;;;0.70;;
12768;SDS011;6448;48.916;8.990;2023-05-10T04:05:06;0.77;;;0.77;;
12768;SDS011;6448;48.916;8.990;2023-05-10T04:06:09;0.80;;;0.77;;
12768;SDS011;6448;48.916;8.990;2023-05-10T04:07:11;0.70;;;0.70;;
12768;SDS011;6448;48.916;8.990;2023-05-10T04:08:15;1.40;;;0.77;;
12768;SDS011;6448;48.916;8.990;2023-05-10T04:09:16;0.65;;;0.65;;
12768;SDS011;6448;48.916;8.990;2023-05-10T04:10:18;0.77;;;0.77;;
12768;SDS011;6448;48.916;8.990;2023-05-10T04:11:19;0.70;;;0.70;;
12768;SDS011;6448;48.916;8.990;2023-05-10T04:12:21;0.75;;;0.75;;
12768;SDS011;6448;48.916;8.990;2023-05-10T04:13:22;1.08;;;0.70;;
12768;SDS011;6448;48.916;8.990;2023-05-10T04:14:24;0.90;;;0.88;;
12768;SDS011;6448;48.916;8.990;2023-05-10T04:15:25;0.70;;;0.70;;
12768;SDS011;6448;48.916;8.990;2023-05-10T04:16:26;0.75;;;0.73;;
12768;SDS011;6448;48.916;8.990;2023-05-10T04:17:27;0.70;;;0.70;;
12768;SDS011;6448;48.916;8.990;2023-05-10T04:18:29;0.70;;;0.70;;
12768;SDS011;6448;48.916;8.990;2023-05-10T04:19:30;0.60;;;0.60;;
12768;SDS011;6448;48.916;8.990;2023-05-10T04:20:32;0.70;;;0.70;;
12768;SDS011;6448;48.916;8.990;2023-05-10T04:21:33;0.73;;;0.73;;
12768;SDS011;6448;48.916;8.990;2023-05-10T04:22:35;0.73;;;0.73;;
12768;SDS011;6448;48.916;8.990;2023-05-10T04:23:37;1.10;;;0.83;;
12768;SDS011;6448;48.916;8.990;2023-05-10T04:24:38;1.00;;;0.80;;
12768;SDS011;6448;48.916;8.990;2023-05-10T04:25:39;1.10;;;0.73;;
12768;SDS011;6448;48.916;8.990;2023-05-10T04:26:41;0.70;;;0.70;;
12768;SDS011;6448;48.916;8.990;2023-05-10T04:27:42;0.73;;;0.70;;
12768;SDS011;6448;48.916;8.990;2023-05-10T04:28:44;1.02;;;0.80;;
12768;SDS011;6448;48.916;8.990;2023-05-10T04:29:45;0.80;;;0.80;;
12768;SDS011;6448;48.916;8.990;2023-05-10T04:30:46;0.70;;;0.70;;
12768;SDS011;6448;48.916;8.990;2023-05-10T04:31:47;0.70;;;0.70;;
12768;SDS011;6448;48.916;8.990;2023-05-10T04:32:49;0.73;;;0.73;;
12768;SDS011;6448;48.916;8.990;2023-05-10T04:33:50;1.10;;;0.70;;
12768;SDS011;6448;48.916;8.990;2023-05-10T04:34:52;0.73;;;0.73;;
12768;SDS011;6448;48.916;8.990;2023-05-10T04:35:53;0.90;;;0.90;;
12768;SDS011;6448;48.916;8.990;2023-05-10T04:36:55;1.00;;;0.70;;
12768;SDS011;6448;48.916;8.990;2023-05-10T04:37:55;0.73;;;0.70;;
12768;SDS011;6448;48.916;8.990;2023-05-10T04:38:58;0.80;;;0.80;;
12768;SDS011;6448;48.916;8.990;2023-05-10T04:39:59;0.75;;;0.75;;
12768;SDS011;6448;48.916;8.990;2023-05-10T04:41:04;0.80;;;0.80;;
12768;SDS011;6448;48.916;8.990;2023-05-10T04:42:06;0.80;;;0.80;;
12768;SDS011;6448;48.916;8.990;2023-05-10T04:43:08;1.13;;;0.90;;
12768;SDS011;6448;48.916;8.990;2023-05-10T04:44:08;0.70;;;0.70;;
12768;SDS011;6448;48.916;8.990;2023-05-10T04:45:10;1.10;;;0.80;;
12768;SDS011;6448;48.916;8.990;2023-05-10T04:46:11;0.70;;;0.70;;
12768;SDS011;6448;48.916;8.990;2023-05-10T04:47:13;0.80;;;0.80;;
12768;SDS011;6448;48.916;8.990;2023-05-10T04:48:16;1.00;;;0.90;;
12768;SDS011;6448;48.916;8.990;2023-05-10T04:49:17;0.77;;;0.77;;
12768;SDS011;6448;48.916;8.990;2023-05-10T04:50:19;0.90;;;0.90;;
12768;SDS011;6448;48.916;8.990;2023-05-10T04:51:19;0.80;;;0.80;;
12768;SDS011;6448;48.916;8.990;2023-05-10T04:52:21;0.70;;;0.70;;
12768;SDS011;6448;48.916;8.990;2023-05-10T04:53:22;1.30;;;0.90;;
12768;SDS011;6448;48.916;8.990;2023-05-10T04:54:25;0.80;;;0.80;;
12768;SDS011;6448;48.916;8.990;2023-05-10T04:55:26;1.50;;;0.90;;
12768;SDS011;6448;48.916;8.990;2023-05-10T04:56:28;1.02;;;0.90;;
12768;SDS011;6448;48.916;8.990;2023-05-10T04:57:28;0.80;;;0.80;;
12768;SDS011;6448;48.916;8.990;2023-05-10T04:58:30;0.90;;;0.90;;
12768;SDS011;6448;48.916;8.990;2023-05-10T04:59:31;0.95;;;0.70;;
12768;SDS011;6448;48.916;8.990;2023-05-10T05:00:32;0.80;;;0.80;;
12768;SDS011;6448;48.916;8.990;2023-05-10T05:01:33;0.90;;;0.90;;
12768;SDS011;6448;48.916;8.990;2023-05-10T05:02:35;1.20;;;0.90;;
12768;SDS011;6448;48.916;8.990;2023-05-10T05:03:36;0.85;;;0.85;;
12768;SDS011;6448;48.916;8.990;2023-05-10T05:04:37;0.90;;;0.90;;
12768;SDS011;6448;48.916;8.990;2023-05-10T05:05:38;1.10;;;0.90;;
12768;SDS011;6448;48.916;8.990;2023-05-10T05:06:40;1.00;;;0.90;;
12768;SDS011;6448;48.916;8.990;2023-05-10T05:07:41;0.90;;;0.90;;
12768;SDS011;6448;48.916;8.990;2023-05-10T05:08:42;1.08;;;0.80;;
12768;SDS011;6448;48.916;8.990;2023-05-10T05:09:44;0.90;;;0.90;;
12768;SDS011;6448;48.916;8.990;2023-05-10T05:10:47;1.13;;;0.80;;
12768;SDS011;6448;48.916;8.990;2023-05-10T05:11:50;0.97;;;0.90;;
12768;SDS011;6448;48.916;8.990;2023-05-10T05:12:51;1.02;;;0.90;;
12768;SDS011;6448;48.916;8.990;2023-05-10T05:13:52;0.90;;;0.90;;
12768;SDS011;6448;48.916;8.990;2023-05-10T05:14:54;0.88;;;0.88;;
12768;SDS011;6448;48.916;8.990;2023-05-10T05:15:55;0.80;;;0.80;;
12768;SDS011;6448;48.916;8.990;2023-05-10T05:16:56;1.23;;;0.90;;
12768;SDS011;6448;48.916;8.990;2023-05-10T05:17:57;1.40;;;0.80;;
12768;SDS011;6448;48.916;8.990;2023-05-10T05:18:59;0.80;;;0.80;;
12768;SDS011;6448;48.916;8.990;2023-05-10T05:20:00;0.88;;;0.77;;
12768;SDS011;6448;48.916;8.990;2023-05-10T05:21:03;0.80;;;0.80;;
12768;SDS011;6448;48.916;8.990;2023-05-10T05:22:14;2.17;;;1.10;;
12768;SDS011;6448;48.916;8.990;2023-05-10T05:23:14;0.90;;;0.80;;
12768;SDS011;6448;48.916;8.990;2023-05-10T05:24:16;0.77;;;0.77;;
12768;SDS011;6448;48.916;8.990;2023-05-10T05:25:18;0.90;;;0.90;;
12768;SDS011;6448;48.916;8.990;2023-05-10T05:26:20;0.90;;;0.90;;
12768;SDS011;6448;48.916;8.990;2023-05-10T05:27:21;1.52;;;0.90;;
12768;SDS011;6448;48.916;8.990;2023-05-10T05:28:24;0.93;;;0.93;;
12768;SDS011;6448;48.916;8.990;2023-05-10T05:29:25;1.30;;;1.00;;
12768;SDS011;6448;48.916;8.990;2023-05-10T05:30:26;0.90;;;0.90;;
12768;SDS011;6448;48.916;8.990;2023-05-10T05:31:27;0.80;;;0.80;;
12768;SDS011;6448;48.916;8.990;2023-05-10T05:32:29;0.80;;;0.80;;
12768;SDS011;6448;48.916;8.990;2023-05-10T05:33:30;1.00;;;0.90;;
12768;SDS011;6448;48.916;8.990;2023-05-10T05:34:32;0.80;;;0.80;;
12768;SDS011;6448;48.916;8.990;2023-05-10T05:35:33;0.98;;;0.90;;
12768;SDS011;6448;48.916;8.990;2023-05-10T05:36:35;1.10;;;1.00;;
12768;SDS011;6448;48.916;8.990;2023-05-10T05:37:38;1.23;;;0.95;;
12768;SDS011;6448;48.916;8.990;2023-05-10T05:38:40;1.10;;;1.00;;
12768;SDS011;6448;48.916;8.990;2023-05-10T05:39:40;1.10;;;1.00;;
12768;SDS011;6448;48.916;8.990;2023-05-10T05:40:44;1.42;;;1.00;;
12768;SDS011;6448;48.916;8.990;2023-05-10T05:41:46;1.10;;;1.00;;
12768;SDS011;6448;48.916;8.990;2023-05-10T05:42:47;1.55;;;1.05;;
12768;SDS011;6448;48.916;8.990;2023-05-10T05:43:49;0.90;;;0.90;;
12768;SDS011;6448;48.916;8.990;2023-05-10T05:44:50;1.30;;;1.00;;
12768;SDS011;6448;48.916;8.990;2023-05-10T05:45:52;1.08;;;0.90;;
12768;SDS011;6448;48.916;8.990;2023-05-10T05:46:53;1.10;;;1.00;;
12768;SDS011;6448;48.916;8.990;2023-05-10T05:47:55;1.10;;;1.00;;
12768;SDS011;6448;48.916;8.990;2023-05-10T05:48:56;1.00;;;0.90;;
12768;SDS011;6448;48.916;8.990;2023-05-10T05:49:57;1.05;;;1.00;;
12768;SDS011;6448;48.916;8.990;2023-05-10T05:50:58;1.90;;;1.10;;
12768;SDS011;6448;48.916;8.990;2023-05-10T05:52:00;1.35;;;1.00;;
12768;SDS011;6448;48.916;8.990;2023-05-10T05:53:01;0.93;;;0.93;;
12768;SDS011;6448;48.916;8.990;2023-05-10T05:54:03;1.20;;;1.10;;
12768;SDS011;6448;48.916;8.990;2023-05-10T05:55:04;1.20;;;1.10;;
12768;SDS011;6448;48.916;8.990;2023-05-10T05:56:07;1.20;;;1.00;;
12768;SDS011;6448;48.916;8.990;2023-05-10T05:57:09;1.27;;;1.00;;
12768;SDS011;6448;48.916;8.990;2023-05-10T05:58:10;0.90;;;0.90;;
12768;SDS011;6448;48.916;8.990;2023-05-10T05:59:12;1.02;;;0.90;;
12768;SDS011;6448;48.916;8.990;2023-05-10T06:00:14;1.23;;;1.00;;
12768;SDS011;6448;48.916;8.990;2023-05-10T06:01:15;1.17;;;1.00;;
12768;SDS011;6448;48.916;8.990;2023-05-10T06:02:17;1.10;;;1.05;;
12768;SDS011;6448;48.916;8.990;2023-05-10T06:03:18;1.45;;;1.10;;
12768;SDS011;6448;48.916;8.990;2023-05-10T06:04:20;1.10;;;1.00;;
12768;SDS011;6448;48.916;8.990;2023-05-10T06:05:21;1.52;;;1.05;;
12768;SDS011;6448;48.916;8.990;2023-05-10T06:06:23;1.20;;;1.10;;
12768;SDS011;6448;48.916;8.990;2023-05-10T06:07:23;1.20;;;1.15;;
12768;SDS011;6448;48.916;8.990;2023-05-10T06:08:25;0.98;;;0.98;;
12768;SDS011;6448;48.916;8.990;2023-05-10T06:09:26;1.25;;;1.08;;
12768;SDS011;6448;48.916;8.990;2023-05-10T06:10:28;0.95;;;0.95;;
12768;SDS011;6448;48.916;8.990;2023-05-10T06:11:30;1.30;;;1.00;;
12768;SDS011;6448;48.916;8.990;2023-05-10T06:12:32;1.15;;;1.05;;
12768;SDS011;6448;48.916;8.990;2023-05-10T06:13:32;1.20;;;1.00;;
12768;SDS011;6448;48.916;8.990;2023-05-10T06:14:35;1.17;;;1.10;;
12768;SDS011;6448;48.916;8.990;2023-05-10T06:15:35;0.90;;;0.90;;
12768;SDS011;6448;48.916;8.990;2023-05-10T06:16:37;1.20;;;1.10;;
12768;SDS011;6448;48.916;8.990;2023-05-10T06:17:38;1.10;;;1.00;;
12768;SDS011;6448;48.916;8.990;2023-05-10T06:18:40;1.00;;;1.00;;
12768;SDS011;6448;48.916;8.990;2023-05-10T06:19:41;1.40;;;1.10;;
12768;SDS011;6448;48.916;8.990;2023-05-10T06:20:42;1.17;;;1.08;;
12768;SDS011;6448;48.916;8.990;2023-05-10T06:21:43;1.08;;;1.05;;
12768;SDS011;6448;48.916;8.990;2023-05-10T06:22:45;0.90;;;0.90;;
12768;SDS011;6448;48.916;8.990;2023-05-10T06:23:46;1.00;;;1.00;;
12768;SDS011;6448;48.916;8.990;2023-05-10T06:24:47;1.30;;;0.98;;
12768;SDS011;6448;48.916;8.990;2023-05-10T06:25:48;1.10;;;1.00;;
12768;SDS011;6448;48.916;8.990;2023-05-10T06:26:51;1.00;;;1.00;;
12768;SDS011;6448;48.916;8.990;2023-05-10T06:27:52;1.20;;;1.10;;
12768;SDS011;6448;48.916;8.990;2023-05-10T06:28:57;1.20;;;1.10;;
12768;SDS011;6448;48.916;8.990;2023-05-10T06:29:59;1.10;;;1.00;;